sensor_id;sensor_type;location;lat;lon;timestamp;P1;durP1;ratioP1;P2;durP2;ratioP2
48263;SDS011;34086;51.076;13.722;2022-07-29T00:00:52;6.97;;;2.50;;
48263;SDS011;34086;51.076;13.722;2022-07-29T00:01:52;4.32;;;2.60;;
48263;SDS011;34086;51.076;13.722;2022-07-29T00:02:56;5.82;;;2.50;;
48263;SDS011;34086;51.076;13.722;2022-07-29T00:03:58;7.55;;;2.60;;
48263;SDS011;34086;51.076;13.722;2022-07-29T00:04:58;7.40;;;2.63;;
48263;SDS011;34086;51.076;13.722;2022-07-29T00:05:59;5.40;;;2.60;;
48263;SDS011;34086;51.076;13.722;2022-07-29T00:07:00;3.53;;;2.65;;
48263;SDS011;34086;51.076;13.722;2022-07-29T00:08:01;6.50;;;2.83;;
48263;SDS011;34086;51.076;13.722;2022-07-29T00:09:02;2.92;;;2.50;;
48263;SDS011;34086;51.076;13.722;2022-07-29T00:10:03;5.05;;;2.88;;
48263;SDS011;34086;51.076;13.722;2022-07-29T00:11:07;4.72;;;2.58;;
48263;SDS011;34086;51.076;13.722;2022-07-29T00:12:09;3.28;;;2.70;;
48263;SDS011;34086;51.076;13.722;2022-07-29T00:13:09;3.92;;;2.60;;
48263;SDS011;34086;51.076;13.722;2022-07-29T00:14:10;5.40;;;2.75;;
48263;SDS011;34086;51.076;13.722;2022-07-29T00:15:11;5.20;;;2.72;;
48263;SDS011;34086;51.076;13.722;2022-07-29T00:16:12;5.40;;;2.60;;
48263;SDS011;34086;51.076;13.722;2022-07-29T00:17:13;5.95;;;2.40;;
48263;SDS011;34086;51.076;13.722;2022-07-29T00:18:17;5.45;;;2.65;;
48263;SDS011;34086;51.076;13.722;2022-07-29T00:19:18;5.13;;;2.63;;
48263;SDS011;34086;51.076;13.722;2022-07-29T00:20:19;4.80;;;2.53;;
48263;SDS011;34086;51.076;13.722;2022-07-29T00:21:23;3.50;;;2.65;;
48263;SDS011;34086;51.076;13.722;2022-07-29T00:22:26;4.93;;;2.50;;
48263;SDS011;34086;51.076;13.722;2022-07-29T00:23:30;3.40;;;2.55;;
48263;SDS011;34086;51.076;13.722;2022-07-29T00:24:35;4.15;;;2.60;;
48263;SDS011;34086;51.076;13.722;2022-07-29T00:25:35;4.50;;;2.53;;
48263;SDS011;34086;51.076;13.722;2022-07-29T00:26:36;4.72;;;2.30;;
48263;SDS011;34086;51.076;13.722;2022-07-29T00:27:37;4.20;;;2.42;;
48263;SDS011;34086;51.076;13.722;2022-07-29T00:28:38;3.83;;;2.70;;
48263;SDS011;34086;51.076;13.722;2022-07-29T00:29:39;5.65;;;2.63;;
48263;SDS011;34086;51.076;13.722;2022-07-29T00:30:40;3.58;;;2.55;;
48263;SDS011;34086;51.076;13.722;2022-07-29T00:31:43;5.32;;;2.53;;
48263;SDS011;34086;51.076;13.722;2022-07-29T00:32:49;4.65;;;2.75;;
48263;SDS011;34086;51.076;13.722;2022-07-29T00:33:50;3.15;;;2.40;;
48263;SDS011;34086;51.076;13.722;2022-07-29T00:34:51;3.53;;;2.42;;
48263;SDS011;34086;51.076;13.722;2022-07-29T00:36:10;6.20;;;2.90;;
48263;SDS011;34086;51.076;13.722;2022-07-29T00:37:11;2.75;;;2.40;;
48263;SDS011;34086;51.076;13.722;2022-07-29T00:38:12;4.18;;;2.47;;
48263;SDS011;34086;51.076;13.722;2022-07-29T00:39:14;4.68;;;2.60;;
48263;SDS011;34086;51.076;13.722;2022-07-29T00:40:15;3.33;;;2.30;;
48263;SDS011;34086;51.076;13.722;2022-07-29T00:41:16;5.07;;;2.65;;
48263;SDS011;34086;51.076;13.722;2022-07-29T00:42:17;3.25;;;2.47;;
48263;SDS011;34086;51.076;13.722;2022-07-29T00:43:21;3.83;;;2.55;;
48263;SDS011;34086;51.076;13.722;2022-07-29T00:44:22;3.60;;;2.60;;
48263;SDS011;34086;51.076;13.722;2022-07-29T00:45:23;3.10;;;2.60;;
48263;SDS011;34086;51.076;13.722;2022-07-29T00:46:24;5.10;;;2.50;;
48263;SDS011;34086;51.076;13.722;2022-07-29T00:47:25;4.20;;;2.60;;
48263;SDS011;34086;51.076;13.722;2022-07-29T00:48:26;4.50;;;2.70;;
48263;SDS011;34086;51.076;13.722;2022-07-29T00:49:26;4.45;;;2.80;;
48263;SDS011;34086;51.076;13.722;2022-07-29T00:50:27;4.75;;;2.80;;
48263;SDS011;34086;51.076;13.722;2022-07-29T00:51:35;4.07;;;2.70;;
48263;SDS011;34086;51.076;13.722;2022-07-29T00:52:38;5.60;;;2.80;;
48263;SDS011;34086;51.076;13.722;2022-07-29T00:53:40;3.95;;;2.60;;
48263;SDS011;34086;51.076;13.722;2022-07-29T00:54:44;4.22;;;2.88;;
48263;SDS011;34086;51.076;13.722;2022-07-29T00:55:45;5.43;;;2.80;;
48263;SDS011;34086;51.076;13.722;2022-07-29T00:56:46;3.97;;;2.70;;
48263;SDS011;34086;51.076;13.722;2022-07-29T00:57:47;4.28;;;2.67;;
48263;SDS011;34086;51.076;13.722;2022-07-29T00:58:49;4.40;;;3.10;;
48263;SDS011;34086;51.076;13.722;2022-07-29T00:59:51;4.95;;;2.60;;
48263;SDS011;34086;51.076;13.722;2022-07-29T01:00:52;4.13;;;2.60;;
48263;SDS011;34086;51.076;13.722;2022-07-29T01:01:54;2.63;;;2.40;;
48263;SDS011;34086;51.076;13.722;2022-07-29T01:02:55;4.65;;;2.70;;
48263;SDS011;34086;51.076;13.722;2022-07-29T01:03:56;4.97;;;2.60;;
48263;SDS011;34086;51.076;13.722;2022-07-29T01:04:57;5.78;;;2.80;;
48263;SDS011;34086;51.076;13.722;2022-07-29T01:05:58;4.47;;;2.60;;
48263;SDS011;34086;51.076;13.722;2022-07-29T01:07:00;4.45;;;2.60;;
48263;SDS011;34086;51.076;13.722;2022-07-29T01:08:02;4.55;;;2.60;;
48263;SDS011;34086;51.076;13.722;2022-07-29T01:09:03;4.25;;;2.70;;
48263;SDS011;34086;51.076;13.722;2022-07-29T01:10:06;4.40;;;2.70;;
48263;SDS011;34086;51.076;13.722;2022-07-29T01:11:09;6.50;;;2.60;;
48263;SDS011;34086;51.076;13.722;2022-07-29T01:12:10;4.82;;;2.80;;
48263;SDS011;34086;51.076;13.722;2022-07-29T01:13:13;5.93;;;2.97;;
48263;SDS011;34086;51.076;13.722;2022-07-29T01:14:15;6.38;;;2.70;;
48263;SDS011;34086;51.076;13.722;2022-07-29T01:15:16;4.97;;;2.75;;
48263;SDS011;34086;51.076;13.722;2022-07-29T01:16:20;4.90;;;2.90;;
48263;SDS011;34086;51.076;13.722;2022-07-29T01:17:26;7.22;;;2.88;;
48263;SDS011;34086;51.076;13.722;2022-07-29T01:18:46;5.65;;;2.60;;
48263;SDS011;34086;51.076;13.722;2022-07-29T01:22:31;7.25;;;2.88;;
48263;SDS011;34086;51.076;13.722;2022-07-29T01:26:05;5.15;;;2.80;;
48263;SDS011;34086;51.076;13.722;2022-07-29T01:30:00;5.70;;;2.97;;
48263;SDS011;34086;51.076;13.722;2022-07-29T01:32:20;6.18;;;3.03;;
48263;SDS011;34086;51.076;13.722;2022-07-29T01:33:25;5.20;;;3.03;;
48263;SDS011;34086;51.076;13.722;2022-07-29T01:34:49;6.18;;;3.08;;
48263;SDS011;34086;51.076;13.722;2022-07-29T01:35:50;6.18;;;2.92;;
48263;SDS011;34086;51.076;13.722;2022-07-29T01:36:55;5.88;;;3.00;;
48263;SDS011;34086;51.076;13.722;2022-07-29T01:38:10;4.25;;;2.95;;
48263;SDS011;34086;51.076;13.722;2022-07-29T01:39:23;6.95;;;3.10;;
48263;SDS011;34086;51.076;13.722;2022-07-29T01:40:33;4.38;;;2.97;;
48263;SDS011;34086;51.076;13.722;2022-07-29T01:41:35;3.75;;;2.90;;
48263;SDS011;34086;51.076;13.722;2022-07-29T01:42:47;4.28;;;2.88;;
48263;SDS011;34086;51.076;13.722;2022-07-29T01:43:51;6.88;;;3.00;;
48263;SDS011;34086;51.076;13.722;2022-07-29T01:45:06;5.28;;;3.03;;
48263;SDS011;34086;51.076;13.722;2022-07-29T01:46:11;8.10;;;3.15;;
48263;SDS011;34086;51.076;13.722;2022-07-29T01:47:25;6.68;;;3.30;;
48263;SDS011;34086;51.076;13.722;2022-07-29T01:48:43;4.75;;;2.83;;
48263;SDS011;34086;51.076;13.722;2022-07-29T01:49:48;5.38;;;3.03;;
48263;SDS011;34086;51.076;13.722;2022-07-29T01:52:34;5.45;;;3.17;;
48263;SDS011;34086;51.076;13.722;2022-07-29T01:53:47;5.28;;;3.00;;
48263;SDS011;34086;51.076;13.722;2022-07-29T01:54:56;5.65;;;3.10;;
48263;SDS011;34086;51.076;13.722;2022-07-29T01:55:59;3.97;;;2.80;;
48263;SDS011;34086;51.076;13.722;2022-07-29T01:57:02;4.70;;;3.15;;
48263;SDS011;34086;51.076;13.722;2022-07-29T01:58:05;4.72;;;3.08;;
48263;SDS011;34086;51.076;13.722;2022-07-29T01:59:07;5.78;;;3.17;;
48263;SDS011;34086;51.076;13.722;2022-07-29T02:00:09;6.00;;;3.38;;
48263;SDS011;34086;51.076;13.722;2022-07-29T02:01:15;9.57;;;3.60;;
48263;SDS011;34086;51.076;13.722;2022-07-29T02:02:16;3.78;;;2.80;;
48263;SDS011;34086;51.076;13.722;2022-07-29T02:03:19;6.20;;;2.95;;
48263;SDS011;34086;51.076;13.722;2022-07-29T02:04:21;5.07;;;3.25;;
48263;SDS011;34086;51.076;13.722;2022-07-29T02:05:22;4.47;;;2.90;;
48263;SDS011;34086;51.076;13.722;2022-07-29T02:06:25;6.25;;;3.38;;
48263;SDS011;34086;51.076;13.722;2022-07-29T02:07:28;5.68;;;3.20;;
48263;SDS011;34086;51.076;13.722;2022-07-29T02:08:30;6.75;;;3.15;;
48263;SDS011;34086;51.076;13.722;2022-07-29T02:09:34;5.03;;;3.35;;
48263;SDS011;34086;51.076;13.722;2022-07-29T02:10:50;6.22;;;3.33;;
48263;SDS011;34086;51.076;13.722;2022-07-29T02:12:29;8.60;;;3.40;;
48263;SDS011;34086;51.076;13.722;2022-07-29T02:13:31;6.28;;;3.40;;
48263;SDS011;34086;51.076;13.722;2022-07-29T02:14:39;4.45;;;3.08;;
48263;SDS011;34086;51.076;13.722;2022-07-29T02:15:43;8.77;;;3.60;;
48263;SDS011;34086;51.076;13.722;2022-07-29T02:16:46;6.18;;;3.58;;
48263;SDS011;34086;51.076;13.722;2022-07-29T02:17:50;5.82;;;3.70;;
48263;SDS011;34086;51.076;13.722;2022-07-29T02:18:55;6.95;;;3.80;;
48263;SDS011;34086;51.076;13.722;2022-07-29T02:19:59;5.03;;;3.63;;
48263;SDS011;34086;51.076;13.722;2022-07-29T02:21:01;5.63;;;3.90;;
48263;SDS011;34086;51.076;13.722;2022-07-29T02:22:03;5.47;;;3.65;;
48263;SDS011;34086;51.076;13.722;2022-07-29T02:23:06;5.10;;;3.53;;
48263;SDS011;34086;51.076;13.722;2022-07-29T02:24:11;6.57;;;3.90;;
48263;SDS011;34086;51.076;13.722;2022-07-29T02:25:13;8.02;;;4.32;;
48263;SDS011;34086;51.076;13.722;2022-07-29T02:26:17;5.22;;;3.97;;
48263;SDS011;34086;51.076;13.722;2022-07-29T02:27:23;6.32;;;4.18;;
48263;SDS011;34086;51.076;13.722;2022-07-29T02:28:27;7.93;;;4.65;;
48263;SDS011;34086;51.076;13.722;2022-07-29T02:29:30;8.75;;;4.70;;
48263;SDS011;34086;51.076;13.722;2022-07-29T02:30:32;7.35;;;5.05;;
48263;SDS011;34086;51.076;13.722;2022-07-29T02:31:39;12.10;;;5.10;;
48263;SDS011;34086;51.076;13.722;2022-07-29T02:32:43;8.73;;;5.85;;
48263;SDS011;34086;51.076;13.722;2022-07-29T02:33:46;8.27;;;5.93;;
48263;SDS011;34086;51.076;13.722;2022-07-29T02:34:48;10.88;;;5.80;;
48263;SDS011;34086;51.076;13.722;2022-07-29T02:35:49;10.05;;;6.32;;
48263;SDS011;34086;51.076;13.722;2022-07-29T02:36:50;8.05;;;5.95;;
48263;SDS011;34086;51.076;13.722;2022-07-29T02:37:53;11.40;;;6.15;;
48263;SDS011;34086;51.076;13.722;2022-07-29T02:39:14;9.88;;;6.15;;
48263;SDS011;34086;51.076;13.722;2022-07-29T02:40:15;8.30;;;6.38;;
48263;SDS011;34086;51.076;13.722;2022-07-29T02:41:30;10.32;;;6.65;;
48263;SDS011;34086;51.076;13.722;2022-07-29T02:42:37;9.85;;;6.57;;
48263;SDS011;34086;51.076;13.722;2022-07-29T02:43:40;10.93;;;6.32;;
48263;SDS011;34086;51.076;13.722;2022-07-29T02:44:43;9.20;;;6.45;;
48263;SDS011;34086;51.076;13.722;2022-07-29T02:45:44;12.23;;;7.53;;
48263;SDS011;34086;51.076;13.722;2022-07-29T02:46:53;10.75;;;7.32;;
48263;SDS011;34086;51.076;13.722;2022-07-29T02:48:05;10.63;;;7.25;;
48263;SDS011;34086;51.076;13.722;2022-07-29T02:49:12;15.20;;;9.45;;
48263;SDS011;34086;51.076;13.722;2022-07-29T02:50:21;15.32;;;9.30;;
48263;SDS011;34086;51.076;13.722;2022-07-29T02:51:34;13.30;;;8.57;;
48263;SDS011;34086;51.076;13.722;2022-07-29T02:53:53;12.60;;;8.63;;
48263;SDS011;34086;51.076;13.722;2022-07-29T02:54:56;14.02;;;9.25;;
48263;SDS011;34086;51.076;13.722;2022-07-29T02:56:04;12.88;;;9.20;;
48263;SDS011;34086;51.076;13.722;2022-07-29T02:57:17;14.07;;;10.02;;
48263;SDS011;34086;51.076;13.722;2022-07-29T02:58:24;15.52;;;10.68;;
48263;SDS011;34086;51.076;13.722;2022-07-29T02:59:30;18.23;;;11.60;;
48263;SDS011;34086;51.076;13.722;2022-07-29T03:00:34;16.55;;;11.60;;
48263;SDS011;34086;51.076;13.722;2022-07-29T03:01:38;18.58;;;12.02;;
48263;SDS011;34086;51.076;13.722;2022-07-29T03:02:44;21.67;;;12.57;;
48263;SDS011;34086;51.076;13.722;2022-07-29T03:03:46;18.80;;;12.52;;
48263;SDS011;34086;51.076;13.722;2022-07-29T03:04:48;19.13;;;12.88;;
48263;SDS011;34086;51.076;13.722;2022-07-29T03:05:57;18.33;;;12.75;;
48263;SDS011;34086;51.076;13.722;2022-07-29T03:07:00;20.17;;;13.05;;
48263;SDS011;34086;51.076;13.722;2022-07-29T03:08:02;21.00;;;13.55;;
48263;SDS011;34086;51.076;13.722;2022-07-29T03:09:07;24.50;;;13.95;;
48263;SDS011;34086;51.076;13.722;2022-07-29T03:10:10;22.92;;;14.50;;
48263;SDS011;34086;51.076;13.722;2022-07-29T03:11:12;20.27;;;14.38;;
48263;SDS011;34086;51.076;13.722;2022-07-29T03:12:14;21.83;;;14.50;;
48263;SDS011;34086;51.076;13.722;2022-07-29T03:13:16;20.27;;;14.40;;
48263;SDS011;34086;51.076;13.722;2022-07-29T03:14:18;21.77;;;15.10;;
48263;SDS011;34086;51.076;13.722;2022-07-29T03:15:20;21.25;;;14.52;;
48263;SDS011;34086;51.076;13.722;2022-07-29T03:16:21;23.02;;;15.07;;
48263;SDS011;34086;51.076;13.722;2022-07-29T03:17:23;21.20;;;14.38;;
48263;SDS011;34086;51.076;13.722;2022-07-29T03:18:25;21.90;;;14.70;;
48263;SDS011;34086;51.076;13.722;2022-07-29T03:19:26;21.48;;;14.30;;
48263;SDS011;34086;51.076;13.722;2022-07-29T03:20:27;24.23;;;14.32;;
48263;SDS011;34086;51.076;13.722;2022-07-29T03:21:28;23.23;;;13.82;;
48263;SDS011;34086;51.076;13.722;2022-07-29T03:22:29;19.02;;;13.68;;
48263;SDS011;34086;51.076;13.722;2022-07-29T03:23:30;21.98;;;14.38;;
48263;SDS011;34086;51.076;13.722;2022-07-29T03:24:32;19.08;;;13.50;;
48263;SDS011;34086;51.076;13.722;2022-07-29T03:25:35;20.58;;;13.60;;
48263;SDS011;34086;51.076;13.722;2022-07-29T03:26:35;19.02;;;13.57;;
48263;SDS011;34086;51.076;13.722;2022-07-29T03:27:36;21.88;;;14.30;;
48263;SDS011;34086;51.076;13.722;2022-07-29T03:28:37;20.15;;;13.98;;
48263;SDS011;34086;51.076;13.722;2022-07-29T03:29:38;20.55;;;13.75;;
48263;SDS011;34086;51.076;13.722;2022-07-29T03:30:38;21.77;;;15.02;;
48263;SDS011;34086;51.076;13.722;2022-07-29T03:31:39;22.17;;;14.65;;
48263;SDS011;34086;51.076;13.722;2022-07-29T03:32:49;19.77;;;14.18;;
48263;SDS011;34086;51.076;13.722;2022-07-29T03:33:50;22.48;;;15.25;;
48263;SDS011;34086;51.076;13.722;2022-07-29T03:34:51;19.45;;;14.52;;
48263;SDS011;34086;51.076;13.722;2022-07-29T03:35:52;23.00;;;14.48;;
48263;SDS011;34086;51.076;13.722;2022-07-29T03:36:53;20.65;;;15.10;;
48263;SDS011;34086;51.076;13.722;2022-07-29T03:37:54;22.13;;;15.20;;
48263;SDS011;34086;51.076;13.722;2022-07-29T03:38:54;22.77;;;15.07;;
48263;SDS011;34086;51.076;13.722;2022-07-29T03:39:56;22.05;;;14.80;;
48263;SDS011;34086;51.076;13.722;2022-07-29T03:40:59;21.95;;;15.32;;
48263;SDS011;34086;51.076;13.722;2022-07-29T03:42:06;20.10;;;14.77;;
48263;SDS011;34086;51.076;13.722;2022-07-29T03:43:10;24.50;;;14.65;;
48263;SDS011;34086;51.076;13.722;2022-07-29T03:44:12;19.80;;;15.20;;
48263;SDS011;34086;51.076;13.722;2022-07-29T03:45:15;21.92;;;15.50;;
48263;SDS011;34086;51.076;13.722;2022-07-29T03:46:19;24.70;;;15.70;;
48263;SDS011;34086;51.076;13.722;2022-07-29T03:47:24;21.75;;;15.20;;
48263;SDS011;34086;51.076;13.722;2022-07-29T03:48:27;22.38;;;15.52;;
48263;SDS011;34086;51.076;13.722;2022-07-29T03:49:31;24.05;;;15.52;;
48263;SDS011;34086;51.076;13.722;2022-07-29T03:50:34;20.73;;;16.02;;
48263;SDS011;34086;51.076;13.722;2022-07-29T03:51:36;21.20;;;16.40;;
48263;SDS011;34086;51.076;13.722;2022-07-29T03:52:37;21.08;;;16.35;;
48263;SDS011;34086;51.076;13.722;2022-07-29T03:53:38;26.98;;;16.35;;
48263;SDS011;34086;51.076;13.722;2022-07-29T03:54:38;22.90;;;16.67;;
48263;SDS011;34086;51.076;13.722;2022-07-29T03:55:41;22.63;;;15.95;;
48263;SDS011;34086;51.076;13.722;2022-07-29T03:56:47;25.02;;;17.05;;
48263;SDS011;34086;51.076;13.722;2022-07-29T03:57:52;25.35;;;16.98;;
48263;SDS011;34086;51.076;13.722;2022-07-29T03:58:53;23.13;;;16.45;;
48263;SDS011;34086;51.076;13.722;2022-07-29T03:59:54;21.35;;;15.95;;
48263;SDS011;34086;51.076;13.722;2022-07-29T04:00:55;26.30;;;16.75;;
48263;SDS011;34086;51.076;13.722;2022-07-29T04:01:57;24.02;;;16.83;;
48263;SDS011;34086;51.076;13.722;2022-07-29T04:02:59;24.83;;;17.73;;
48263;SDS011;34086;51.076;13.722;2022-07-29T04:04:01;25.27;;;17.52;;
48263;SDS011;34086;51.076;13.722;2022-07-29T04:05:02;27.88;;;19.00;;
48263;SDS011;34086;51.076;13.722;2022-07-29T04:06:04;26.92;;;18.98;;
48263;SDS011;34086;51.076;13.722;2022-07-29T04:07:06;29.13;;;19.70;;
48263;SDS011;34086;51.076;13.722;2022-07-29T04:08:07;29.50;;;19.98;;
48263;SDS011;34086;51.076;13.722;2022-07-29T04:09:07;28.33;;;20.92;;
48263;SDS011;34086;51.076;13.722;2022-07-29T04:10:08;31.98;;;22.85;;
48263;SDS011;34086;51.076;13.722;2022-07-29T04:11:09;32.50;;;22.17;;
48263;SDS011;34086;51.076;13.722;2022-07-29T04:12:10;30.52;;;22.80;;
48263;SDS011;34086;51.076;13.722;2022-07-29T04:13:11;32.33;;;22.13;;
48263;SDS011;34086;51.076;13.722;2022-07-29T04:14:11;34.90;;;24.27;;
48263;SDS011;34086;51.076;13.722;2022-07-29T04:15:12;37.22;;;23.65;;
48263;SDS011;34086;51.076;13.722;2022-07-29T04:16:13;33.13;;;23.77;;
48263;SDS011;34086;51.076;13.722;2022-07-29T04:17:13;35.45;;;25.27;;
48263;SDS011;34086;51.076;13.722;2022-07-29T04:18:14;37.33;;;25.73;;
48263;SDS011;34086;51.076;13.722;2022-07-29T04:19:15;36.00;;;25.33;;
48263;SDS011;34086;51.076;13.722;2022-07-29T04:20:15;36.50;;;25.77;;
48263;SDS011;34086;51.076;13.722;2022-07-29T04:21:16;33.70;;;25.40;;
48263;SDS011;34086;51.076;13.722;2022-07-29T04:22:17;34.92;;;25.65;;
48263;SDS011;34086;51.076;13.722;2022-07-29T04:23:17;37.75;;;25.58;;
48263;SDS011;34086;51.076;13.722;2022-07-29T04:24:18;35.80;;;25.90;;
48263;SDS011;34086;51.076;13.722;2022-07-29T04:25:19;37.17;;;26.63;;
48263;SDS011;34086;51.076;13.722;2022-07-29T04:26:19;36.78;;;26.45;;
48263;SDS011;34086;51.076;13.722;2022-07-29T04:27:20;38.70;;;26.58;;
48263;SDS011;34086;51.076;13.722;2022-07-29T04:28:21;36.00;;;27.02;;
48263;SDS011;34086;51.076;13.722;2022-07-29T04:29:22;35.60;;;26.27;;
48263;SDS011;34086;51.076;13.722;2022-07-29T04:30:22;34.67;;;25.75;;
48263;SDS011;34086;51.076;13.722;2022-07-29T04:31:23;38.63;;;25.95;;
48263;SDS011;34086;51.076;13.722;2022-07-29T04:32:24;36.13;;;26.63;;
48263;SDS011;34086;51.076;13.722;2022-07-29T04:33:26;35.92;;;26.30;;
48263;SDS011;34086;51.076;13.722;2022-07-29T04:34:27;35.08;;;24.33;;
48263;SDS011;34086;51.076;13.722;2022-07-29T04:35:28;33.83;;;24.20;;
48263;SDS011;34086;51.076;13.722;2022-07-29T04:36:29;36.17;;;24.48;;
48263;SDS011;34086;51.076;13.722;2022-07-29T04:37:30;34.72;;;24.35;;
48263;SDS011;34086;51.076;13.722;2022-07-29T04:38:31;31.15;;;23.55;;
48263;SDS011;34086;51.076;13.722;2022-07-29T04:39:31;34.83;;;24.58;;
48263;SDS011;34086;51.076;13.722;2022-07-29T04:40:32;33.38;;;25.10;;
48263;SDS011;34086;51.076;13.722;2022-07-29T04:41:33;32.78;;;24.13;;
48263;SDS011;34086;51.076;13.722;2022-07-29T04:42:34;36.35;;;24.02;;
48263;SDS011;34086;51.076;13.722;2022-07-29T04:43:35;32.92;;;24.70;;
48263;SDS011;34086;51.076;13.722;2022-07-29T04:44:36;35.85;;;25.45;;
48263;SDS011;34086;51.076;13.722;2022-07-29T04:45:36;39.00;;;25.83;;
48263;SDS011;34086;51.076;13.722;2022-07-29T04:46:37;35.22;;;25.50;;
48263;SDS011;34086;51.076;13.722;2022-07-29T04:47:38;35.38;;;25.15;;
48263;SDS011;34086;51.076;13.722;2022-07-29T04:48:39;33.15;;;23.70;;
48263;SDS011;34086;51.076;13.722;2022-07-29T04:49:40;32.45;;;23.13;;
48263;SDS011;34086;51.076;13.722;2022-07-29T04:50:41;30.10;;;22.38;;
48263;SDS011;34086;51.076;13.722;2022-07-29T04:51:42;30.20;;;22.33;;
48263;SDS011;34086;51.076;13.722;2022-07-29T04:52:42;30.23;;;22.05;;
48263;SDS011;34086;51.076;13.722;2022-07-29T04:53:43;30.88;;;21.52;;
48263;SDS011;34086;51.076;13.722;2022-07-29T04:54:44;29.20;;;21.85;;
48263;SDS011;34086;51.076;13.722;2022-07-29T04:55:44;31.20;;;21.60;;
48263;SDS011;34086;51.076;13.722;2022-07-29T04:56:45;31.55;;;22.95;;
48263;SDS011;34086;51.076;13.722;2022-07-29T04:57:46;34.95;;;25.00;;
48263;SDS011;34086;51.076;13.722;2022-07-29T04:58:47;30.95;;;22.30;;
48263;SDS011;34086;51.076;13.722;2022-07-29T04:59:47;31.08;;;23.23;;
48263;SDS011;34086;51.076;13.722;2022-07-29T05:00:49;33.35;;;23.70;;
48263;SDS011;34086;51.076;13.722;2022-07-29T05:01:50;41.58;;;26.00;;
48263;SDS011;34086;51.076;13.722;2022-07-29T05:02:50;37.65;;;24.02;;
48263;SDS011;34086;51.076;13.722;2022-07-29T05:03:51;33.28;;;24.17;;
48263;SDS011;34086;51.076;13.722;2022-07-29T05:04:52;34.20;;;23.30;;
48263;SDS011;34086;51.076;13.722;2022-07-29T05:05:52;34.42;;;23.60;;
48263;SDS011;34086;51.076;13.722;2022-07-29T05:06:53;34.55;;;23.77;;
48263;SDS011;34086;51.076;13.722;2022-07-29T05:07:54;34.15;;;23.65;;
48263;SDS011;34086;51.076;13.722;2022-07-29T05:08:55;34.72;;;23.75;;
48263;SDS011;34086;51.076;13.722;2022-07-29T05:09:56;33.85;;;22.77;;
48263;SDS011;34086;51.076;13.722;2022-07-29T05:10:57;31.70;;;23.67;;
48263;SDS011;34086;51.076;13.722;2022-07-29T05:11:57;34.78;;;23.00;;
48263;SDS011;34086;51.076;13.722;2022-07-29T05:12:58;32.58;;;22.45;;
48263;SDS011;34086;51.076;13.722;2022-07-29T05:13:59;32.63;;;22.27;;
48263;SDS011;34086;51.076;13.722;2022-07-29T05:14:59;33.42;;;22.83;;
48263;SDS011;34086;51.076;13.722;2022-07-29T05:16:00;32.13;;;20.88;;
48263;SDS011;34086;51.076;13.722;2022-07-29T05:17:01;27.60;;;20.58;;
48263;SDS011;34086;51.076;13.722;2022-07-29T05:18:02;32.33;;;21.90;;
48263;SDS011;34086;51.076;13.722;2022-07-29T05:19:03;34.85;;;22.48;;
48263;SDS011;34086;51.076;13.722;2022-07-29T05:20:04;32.38;;;22.73;;
48263;SDS011;34086;51.076;13.722;2022-07-29T05:21:06;31.95;;;21.80;;
48263;SDS011;34086;51.076;13.722;2022-07-29T05:22:06;33.00;;;22.33;;
48263;SDS011;34086;51.076;13.722;2022-07-29T05:23:07;34.72;;;21.65;;
48263;SDS011;34086;51.076;13.722;2022-07-29T05:24:08;32.03;;;21.30;;
48263;SDS011;34086;51.076;13.722;2022-07-29T05:25:09;33.15;;;22.05;;
48263;SDS011;34086;51.076;13.722;2022-07-29T05:26:10;32.25;;;21.25;;
48263;SDS011;34086;51.076;13.722;2022-07-29T05:27:10;30.42;;;20.70;;
48263;SDS011;34086;51.076;13.722;2022-07-29T05:28:11;31.05;;;21.88;;
48263;SDS011;34086;51.076;13.722;2022-07-29T05:29:12;30.70;;;20.55;;
48263;SDS011;34086;51.076;13.722;2022-07-29T05:30:13;29.95;;;20.45;;
48263;SDS011;34086;51.076;13.722;2022-07-29T05:31:14;28.63;;;20.23;;
48263;SDS011;34086;51.076;13.722;2022-07-29T05:32:14;27.70;;;20.85;;
48263;SDS011;34086;51.076;13.722;2022-07-29T05:33:15;28.00;;;19.80;;
48263;SDS011;34086;51.076;13.722;2022-07-29T05:34:16;29.27;;;20.52;;
48263;SDS011;34086;51.076;13.722;2022-07-29T05:35:17;27.35;;;19.92;;
48263;SDS011;34086;51.076;13.722;2022-07-29T05:36:18;29.02;;;20.67;;
48263;SDS011;34086;51.076;13.722;2022-07-29T05:37:19;28.83;;;19.92;;
48263;SDS011;34086;51.076;13.722;2022-07-29T05:38:20;28.55;;;19.70;;
48263;SDS011;34086;51.076;13.722;2022-07-29T05:39:20;27.52;;;19.23;;
48263;SDS011;34086;51.076;13.722;2022-07-29T05:40:21;29.38;;;19.20;;
48263;SDS011;34086;51.076;13.722;2022-07-29T05:41:22;26.38;;;18.63;;
48263;SDS011;34086;51.076;13.722;2022-07-29T05:42:23;28.80;;;18.83;;
48263;SDS011;34086;51.076;13.722;2022-07-29T05:43:25;26.52;;;18.00;;
48263;SDS011;34086;51.076;13.722;2022-07-29T05:44:27;25.45;;;18.67;;
48263;SDS011;34086;51.076;13.722;2022-07-29T05:45:28;25.80;;;18.35;;
48263;SDS011;34086;51.076;13.722;2022-07-29T05:46:28;29.98;;;18.50;;
48263;SDS011;34086;51.076;13.722;2022-07-29T05:47:29;27.10;;;18.33;;
48263;SDS011;34086;51.076;13.722;2022-07-29T05:48:30;24.10;;;18.08;;
48263;SDS011;34086;51.076;13.722;2022-07-29T05:49:31;27.25;;;17.75;;
48263;SDS011;34086;51.076;13.722;2022-07-29T05:50:32;25.73;;;17.33;;
48263;SDS011;34086;51.076;13.722;2022-07-29T05:51:33;23.90;;;16.83;;
48263;SDS011;34086;51.076;13.722;2022-07-29T05:52:34;23.05;;;16.92;;
48263;SDS011;34086;51.076;13.722;2022-07-29T05:53:34;25.15;;;17.05;;
48263;SDS011;34086;51.076;13.722;2022-07-29T05:54:35;21.92;;;15.95;;
48263;SDS011;34086;51.076;13.722;2022-07-29T05:55:36;24.38;;;17.02;;
48263;SDS011;34086;51.076;13.722;2022-07-29T05:56:37;24.05;;;16.30;;
48263;SDS011;34086;51.076;13.722;2022-07-29T05:57:37;27.52;;;16.63;;
48263;SDS011;34086;51.076;13.722;2022-07-29T05:58:38;27.75;;;16.33;;
48263;SDS011;34086;51.076;13.722;2022-07-29T05:59:39;32.47;;;16.55;;
48263;SDS011;34086;51.076;13.722;2022-07-29T06:00:39;35.03;;;17.83;;
48263;SDS011;34086;51.076;13.722;2022-07-29T06:01:40;35.55;;;18.08;;
48263;SDS011;34086;51.076;13.722;2022-07-29T06:02:41;26.00;;;16.15;;
48263;SDS011;34086;51.076;13.722;2022-07-29T06:03:42;26.08;;;15.63;;
48263;SDS011;34086;51.076;13.722;2022-07-29T06:04:43;25.48;;;15.60;;
48263;SDS011;34086;51.076;13.722;2022-07-29T06:05:44;23.55;;;15.80;;
48263;SDS011;34086;51.076;13.722;2022-07-29T06:06:44;24.52;;;15.18;;
48263;SDS011;34086;51.076;13.722;2022-07-29T06:07:45;24.58;;;15.48;;
48263;SDS011;34086;51.076;13.722;2022-07-29T06:08:46;29.23;;;16.42;;
48263;SDS011;34086;51.076;13.722;2022-07-29T06:09:47;28.80;;;16.70;;
48263;SDS011;34086;51.076;13.722;2022-07-29T06:10:47;25.98;;;15.88;;
48263;SDS011;34086;51.076;13.722;2022-07-29T06:11:48;26.20;;;15.88;;
48263;SDS011;34086;51.076;13.722;2022-07-29T06:12:49;27.50;;;16.85;;
48263;SDS011;34086;51.076;13.722;2022-07-29T06:13:49;26.60;;;16.30;;
48263;SDS011;34086;51.076;13.722;2022-07-29T06:14:50;25.48;;;16.60;;
48263;SDS011;34086;51.076;13.722;2022-07-29T06:15:51;25.35;;;16.25;;
48263;SDS011;34086;51.076;13.722;2022-07-29T06:16:51;26.20;;;16.52;;
48263;SDS011;34086;51.076;13.722;2022-07-29T06:17:53;26.98;;;16.60;;